sensor_id;sensor_type;location;lat;lon;timestamp;pressure;altitude;pressure_sealevel;temperature;humidity
9343;BME280;4710;51.382;7.244;2022-08-23T00:02:08;99258.72;;;34.10;34.91
9343;BME280;4710;51.382;7.244;2022-08-23T00:04:48;99259.64;;;34.32;34.63
9343;BME280;4710;51.382;7.244;2022-08-23T00:07:25;99253.80;;;34.46;34.45
9343;BME280;4710;51.382;7.244;2022-08-23T00:10:11;99261.37;;;34.43;34.12
9343;BME280;4710;51.382;7.244;2022-08-23T00:12:50;99261.20;;;34.53;34.20
9343;BME280;4710;51.382;7.244;2022-08-23T00:15:28;99265.34;;;34.58;34.06
9343;BME280;4710;51.382;7.244;2022-08-23T00:18:06;99256.31;;;34.38;34.09
9343;BME280;4710;51.382;7.244;2022-08-23T00:20:48;99250.80;;;34.35;34.28
9343;BME280;4710;51.382;7.244;2022-08-23T00:23:28;99248.63;;;34.56;34.33
9343;BME280;4710;51.382;7.244;2022-08-23T00:26:05;99253.75;;;34.17;34.70
9343;BME280;4710;51.382;7.244;2022-08-23T00:28:42;99249.11;;;34.42;34.52
9343;BME280;4710;51.382;7.244;2022-08-23T00:31:21;99248.39;;;34.21;34.44
9343;BME280;4710;51.382;7.244;2022-08-23T00:34:02;99255.30;;;34.04;34.35
9343;BME280;4710;51.382;7.244;2022-08-23T00:36:39;99246.47;;;34.46;34.12
9343;BME280;4710;51.382;7.244;2022-08-23T00:39:17;99251.45;;;34.42;34.41
9343;BME280;4710;51.382;7.244;2022-08-23T00:42:06;99243.86;;;34.43;34.07
9343;BME280;4710;51.382;7.244;2022-08-23T00:44:47;99246.73;;;34.52;33.95
9343;BME280;4710;51.382;7.244;2022-08-23T00:47:29;99250.92;;;34.66;33.76
9343;BME280;4710;51.382;7.244;2022-08-23T00:50:17;99248.45;;;34.38;34.04
9343;BME280;4710;51.382;7.244;2022-08-23T00:53:03;99238.58;;;34.17;34.35
9343;BME280;4710;51.382;7.244;2022-08-23T00:55:44;99240.97;;;34.04;34.34
9343;BME280;4710;51.382;7.244;2022-08-23T00:58:25;99243.92;;;33.66;34.60
9343;BME280;4710;51.382;7.244;2022-08-23T01:01:06;99243.94;;;33.74;34.64
9343;BME280;4710;51.382;7.244;2022-08-23T01:03:45;99243.67;;;33.73;34.69
9343;BME280;4710;51.382;7.244;2022-08-23T01:06:31;99251.09;;;33.70;34.63
9343;BME280;4710;51.382;7.244;2022-08-23T01:09:12;99245.15;;;33.79;34.90
9343;BME280;4710;51.382;7.244;2022-08-23T01:22:34;99242.93;;;33.66;34.47
9343;BME280;4710;51.382;7.244;2022-08-23T01:26:15;99246.25;;;33.56;34.61
9343;BME280;4710;51.382;7.244;2022-08-23T01:28:57;99249.22;;;32.82;35.15
9343;BME280;4710;51.382;7.244;2022-08-23T01:31:39;99252.74;;;32.63;35.54
9343;BME280;4710;51.382;7.244;2022-08-23T01:34:24;99250.92;;;32.55;35.66
9343;BME280;4710;51.382;7.244;2022-08-23T01:37:06;99248.28;;;32.90;35.37
9343;BME280;4710;51.382;7.244;2022-08-23T01:39:46;99251.81;;;32.12;36.31
9343;BME280;4710;51.382;7.244;2022-08-23T01:42:28;99255.11;;;32.72;35.53
9343;BME280;4710;51.382;7.244;2022-08-23T01:45:10;99249.02;;;32.60;36.05
9343;BME280;4710;51.382;7.244;2022-08-23T01:47:53;99248.85;;;32.59;35.95
9343;BME280;4710;51.382;7.244;2022-08-23T01:50:30;99252.32;;;32.62;36.00
9343;BME280;4710;51.382;7.244;2022-08-23T01:53:12;99252.81;;;32.93;35.51
9343;BME280;4710;51.382;7.244;2022-08-23T01:55:52;99245.41;;;32.50;35.87
9343;BME280;4710;51.382;7.244;2022-08-23T01:58:30;99249.22;;;32.72;35.44
9343;BME280;4710;51.382;7.244;2022-08-23T02:01:10;99250.50;;;32.60;35.59
9343;BME280;4710;51.382;7.244;2022-08-23T02:03:48;99254.23;;;32.21;35.57
9343;BME280;4710;51.382;7.244;2022-08-23T02:06:30;99257.66;;;32.02;35.14
9343;BME280;4710;51.382;7.244;2022-08-23T02:09:10;99256.38;;;31.72;35.50
9343;BME280;4710;51.382;7.244;2022-08-23T02:11:48;99251.52;;;32.29;35.39
9343;BME280;4710;51.382;7.244;2022-08-23T02:14:26;99251.67;;;32.10;34.89
9343;BME280;4710;51.382;7.244;2022-08-23T02:17:04;99251.97;;;32.44;34.57
9343;BME280;4710;51.382;7.244;2022-08-23T02:19:42;99256.36;;;32.71;33.86
9343;BME280;4710;51.382;7.244;2022-08-23T02:22:22;99247.20;;;32.58;34.00
9343;BME280;4710;51.382;7.244;2022-08-23T02:25:00;99250.78;;;32.96;33.61
9343;BME280;4710;51.382;7.244;2022-08-23T02:27:37;99245.67;;;32.89;33.75
9343;BME280;4710;51.382;7.244;2022-08-23T02:30:14;99255.17;;;32.90;33.52
9343;BME280;4710;51.382;7.244;2022-08-23T02:32:52;99251.28;;;32.81;33.74
9343;BME280;4710;51.382;7.244;2022-08-23T02:35:32;99249.64;;;32.87;33.01
9343;BME280;4710;51.382;7.244;2022-08-23T02:38:11;99250.43;;;32.70;32.72
9343;BME280;4710;51.382;7.244;2022-08-23T02:40:55;99259.84;;;32.49;32.95
9343;BME280;4710;51.382;7.244;2022-08-23T02:43:36;99256.83;;;32.98;32.72
9343;BME280;4710;51.382;7.244;2022-08-23T02:46:16;99255.02;;;32.96;32.81
9343;BME280;4710;51.382;7.244;2022-08-23T02:48:55;99257.95;;;33.05;32.53
9343;BME280;4710;51.382;7.244;2022-08-23T02:51:36;99257.50;;;32.95;32.70
9343;BME280;4710;51.382;7.244;2022-08-23T02:54:13;99258.75;;;32.98;32.34
9343;BME280;4710;51.382;7.244;2022-08-23T02:56:50;99267.80;;;32.76;32.07
9343;BME280;4710;51.382;7.244;2022-08-23T02:59:37;99264.41;;;32.59;32.35
9343;BME280;4710;51.382;7.244;2022-08-23T03:02:14;99262.61;;;33.09;32.19
9343;BME280;4710;51.382;7.244;2022-08-23T03:04:53;99260.53;;;32.86;32.01
9343;BME280;4710;51.382;7.244;2022-08-23T03:07:36;99260.27;;;32.97;32.05
9343;BME280;4710;51.382;7.244;2022-08-23T03:10:13;99266.48;;;32.65;32.57
9343;BME280;4710;51.382;7.244;2022-08-23T03:12:54;99262.63;;;33.12;31.86
9343;BME280;4710;51.382;7.244;2022-08-23T03:15:36;99261.23;;;33.04;31.78
9343;BME280;4710;51.382;7.244;2022-08-23T03:18:13;99259.33;;;33.17;31.42
9343;BME280;4710;51.382;7.244;2022-08-23T03:20:50;99265.41;;;33.24;31.25
9343;BME280;4710;51.382;7.244;2022-08-23T03:23:29;99264.32;;;33.40;31.27
9343;BME280;4710;51.382;7.244;2022-08-23T03:26:14;99259.94;;;32.74;30.83
9343;BME280;4710;51.382;7.244;2022-08-23T03:28:53;99265.84;;;33.32;31.08
9343;BME280;4710;51.382;7.244;2022-08-23T03:31:31;99261.30;;;33.27;30.95
9343;BME280;4710;51.382;7.244;2022-08-23T03:34:12;99262.52;;;33.20;31.11
9343;BME280;4710;51.382;7.244;2022-08-23T03:36:50;99259.44;;;33.04;31.18
9343;BME280;4710;51.382;7.244;2022-08-23T03:39:27;99270.94;;;33.39;31.12
9343;BME280;4710;51.382;7.244;2022-08-23T03:42:09;99264.75;;;33.43;30.82
9343;BME280;4710;51.382;7.244;2022-08-23T03:44:49;99269.78;;;33.00;30.63
9343;BME280;4710;51.382;7.244;2022-08-23T03:47:27;99270.66;;;33.43;30.62
9343;BME280;4710;51.382;7.244;2022-08-23T03:50:08;99268.47;;;33.43;30.50
9343;BME280;4710;51.382;7.244;2022-08-23T03:52:48;99269.97;;;33.30;30.70
9343;BME280;4710;51.382;7.244;2022-08-23T03:55:26;99274.80;;;33.46;30.71
9343;BME280;4710;51.382;7.244;2022-08-23T03:58:03;99277.42;;;33.56;30.73
9343;BME280;4710;51.382;7.244;2022-08-23T04:00:40;99276.31;;;33.35;30.14
9343;BME280;4710;51.382;7.244;2022-08-23T04:03:21;99277.00;;;33.56;30.56
9343;BME280;4710;51.382;7.244;2022-08-23T04:05:58;99281.28;;;33.55;30.71
9343;BME280;4710;51.382;7.244;2022-08-23T04:08:42;99283.22;;;33.52;30.52
9343;BME280;4710;51.382;7.244;2022-08-23T04:11:22;99284.45;;;33.41;30.73
9343;BME280;4710;51.382;7.244;2022-08-23T04:14:03;99289.39;;;33.54;30.63
9343;BME280;4710;51.382;7.244;2022-08-23T04:16:44;99291.47;;;33.23;30.57
9343;BME280;4710;51.382;7.244;2022-08-23T04:19:21;99290.78;;;33.36;30.72
9343;BME280;4710;51.382;7.244;2022-08-23T04:22:02;99293.61;;;33.06;30.66
9343;BME280;4710;51.382;7.244;2022-08-23T04:24:41;99305.66;;;33.23;30.64
9343;BME280;4710;51.382;7.244;2022-08-23T04:27:18;99301.24;;;33.32;30.76
9343;BME280;4710;51.382;7.244;2022-08-23T04:29:56;99306.49;;;33.34;30.65
9343;BME280;4710;51.382;7.244;2022-08-23T04:32:36;99310.34;;;32.84;30.47
9343;BME280;4710;51.382;7.244;2022-08-23T04:35:18;99314.87;;;33.20;30.61
9343;BME280;4710;51.382;7.244;2022-08-23T04:37:55;99320.53;;;33.44;30.64
9343;BME280;4710;51.382;7.244;2022-08-23T04:40:33;99320.55;;;33.47;30.43
9343;BME280;4710;51.382;7.244;2022-08-23T04:43:21;99322.47;;;32.55;30.43
9343;BME280;4710;51.382;7.244;2022-08-23T04:45:58;99319.03;;;32.89;30.82
9343;BME280;4710;51.382;7.244;2022-08-23T04:48:36;99328.00;;;32.96;31.01
9343;BME280;4710;51.382;7.244;2022-08-23T04:51:14;99328.59;;;32.98;31.06
9343;BME280;4710;51.382;7.244;2022-08-23T04:53:55;99324.98;;;32.97;31.14
9343;BME280;4710;51.382;7.244;2022-08-23T04:56:33;99332.27;;;32.90;31.14
9343;BME280;4710;51.382;7.244;2022-08-23T04:59:11;99331.02;;;32.92;31.15
9343;BME280;4710;51.382;7.244;2022-08-23T05:01:49;99336.32;;;32.72;31.36
9343;BME280;4710;51.382;7.244;2022-08-23T05:04:34;99337.23;;;32.93;31.21
9343;BME280;4710;51.382;7.244;2022-08-23T05:07:14;99340.23;;;32.86;31.19
9343;BME280;4710;51.382;7.244;2022-08-23T05:09:52;99338.17;;;32.83;31.39
9343;BME280;4710;51.382;7.244;2022-08-23T05:12:29;99340.22;;;32.76;31.36
9343;BME280;4710;51.382;7.244;2022-08-23T05:15:07;99342.70;;;32.80;31.29
9343;BME280;4710;51.382;7.244;2022-08-23T05:17:45;99341.64;;;32.94;31.32
9343;BME280;4710;51.382;7.244;2022-08-23T05:20:24;99346.80;;;32.73;31.58
9343;BME280;4710;51.382;7.244;2022-08-23T05:23:04;99349.25;;;32.46;31.56
9343;BME280;4710;51.382;7.244;2022-08-23T05:25:42;99341.35;;;32.62;31.68
9343;BME280;4710;51.382;7.244;2022-08-23T05:28:27;99350.54;;;32.80;31.60
9343;BME280;4710;51.382;7.244;2022-08-23T05:31:10;99355.23;;;32.82;31.54
9343;BME280;4710;51.382;7.244;2022-08-23T05:33:50;99363.75;;;32.78;31.45
9343;BME280;4710;51.382;7.244;2022-08-23T05:36:30;99367.45;;;32.73;31.81
9343;BME280;4710;51.382;7.244;2022-08-23T05:39:07;99365.25;;;32.75;31.70
9343;BME280;4710;51.382;7.244;2022-08-23T05:41:45;99373.14;;;32.64;31.33
9343;BME280;4710;51.382;7.244;2022-08-23T05:44:26;99371.47;;;32.81;31.38
9343;BME280;4710;51.382;7.244;2022-08-23T05:47:07;99369.55;;;32.84;31.02
9343;BME280;4710;51.382;7.244;2022-08-23T05:49:47;99366.73;;;33.50;30.69
9343;BME280;4710;51.382;7.244;2022-08-23T05:52:30;99370.00;;;33.40;30.86
9343;BME280;4710;51.382;7.244;2022-08-23T05:55:12;99375.03;;;33.17;31.28
9343;BME280;4710;51.382;7.244;2022-08-23T05:57:49;99373.71;;;33.20;31.22
9343;BME280;4710;51.382;7.244;2022-08-23T06:00:34;99376.41;;;33.17;31.38
9343;BME280;4710;51.382;7.244;2022-08-23T06:03:12;99372.92;;;33.06;31.44
9343;BME280;4710;51.382;7.244;2022-08-23T06:05:57;99384.11;;;33.13;31.40
9343;BME280;4710;51.382;7.244;2022-08-23T06:08:38;99386.88;;;33.15;31.45
9343;BME280;4710;51.382;7.244;2022-08-23T06:11:20;99388.09;;;33.14;31.22
9343;BME280;4710;51.382;7.244;2022-08-23T06:14:00;99393.88;;;32.74;31.63
9343;BME280;4710;51.382;7.244;2022-08-23T06:16:42;99391.53;;;33.05;31.42
9343;BME280;4710;51.382;7.244;2022-08-23T06:19:22;99392.17;;;33.22;31.37
9343;BME280;4710;51.382;7.244;2022-08-23T06:22:02;99403.52;;;32.74;31.12
9343;BME280;4710;51.382;7.244;2022-08-23T06:24:42;99396.39;;;33.19;31.19
9343;BME280;4710;51.382;7.244;2022-08-23T06:27:26;99393.27;;;32.90;30.98
9343;BME280;4710;51.382;7.244;2022-08-23T06:30:04;99397.72;;;33.04;31.05
9343;BME280;4710;51.382;7.244;2022-08-23T06:32:48;99400.57;;;31.76;32.38
9343;BME280;4710;51.382;7.244;2022-08-23T06:35:31;99393.95;;;33.25;31.09
9343;BME280;4710;51.382;7.244;2022-08-23T06:40:05;99396.50;;;33.14;31.33
9343;BME280;4710;51.382;7.244;2022-08-23T06:42:47;99400.12;;;32.59;31.36
9343;BME280;4710;51.382;7.244;2022-08-23T06:45:25;99407.39;;;32.75;31.27
9343;BME280;4710;51.382;7.244;2022-08-23T06:48:06;99400.02;;;33.27;31.12
9343;BME280;4710;51.382;7.244;2022-08-23T06:50:53;99395.98;;;32.85;31.08
9343;BME280;4710;51.382;7.244;2022-08-23T06:53:36;99397.72;;;33.42;30.63
9343;BME280;4710;51.382;7.244;2022-08-23T06:56:14;99403.97;;;32.38;31.07
9343;BME280;4710;51.382;7.244;2022-08-23T06:58:51;99409.11;;;32.09;31.82
9343;BME280;4710;51.382;7.244;2022-08-23T07:01:48;99408.98;;;31.25;32.17
9343;BME280;4710;51.382;7.244;2022-08-23T07:04:35;99411.17;;;32.67;31.07
9343;BME280;4710;51.382;7.244;2022-08-23T07:07:13;99404.48;;;33.67;30.59
9343;BME280;4710;51.382;7.244;2022-08-23T07:09:56;99408.00;;;33.21;30.84
9343;BME280;4710;51.382;7.244;2022-08-23T07:12:38;99413.55;;;33.41;30.75
9343;BME280;4710;51.382;7.244;2022-08-23T07:15:19;99419.06;;;33.07;30.84
9343;BME280;4710;51.382;7.244;2022-08-23T07:18:03;99422.77;;;31.19;32.89
9343;BME280;4710;51.382;7.244;2022-08-23T07:20:44;99428.02;;;31.71;32.55
9343;BME280;4710;51.382;7.244;2022-08-23T07:33:55;99435.73;;;32.58;31.91
9343;BME280;4710;51.382;7.244;2022-08-23T07:36:43;99430.78;;;32.60;31.89
9343;BME280;4710;51.382;7.244;2022-08-23T07:39:21;99439.44;;;31.71;32.71
9343;BME280;4710;51.382;7.244;2022-08-23T07:42:05;99448.05;;;31.82;32.80
9343;BME280;4710;51.382;7.244;2022-08-23T07:44:46;99443.63;;;32.88;31.64
9343;BME280;4710;51.382;7.244;2022-08-23T07:47:23;99441.16;;;33.50;31.14
9343;BME280;4710;51.382;7.244;2022-08-23T07:50:04;99442.38;;;33.49;31.20
9343;BME280;4710;51.382;7.244;2022-08-23T07:52:48;99451.25;;;32.97;31.70
9343;BME280;4710;51.382;7.244;2022-08-23T07:55:25;99448.28;;;32.62;31.94
9343;BME280;4710;51.382;7.244;2022-08-23T07:58:15;99446.56;;;33.23;31.22
9343;BME280;4710;51.382;7.244;2022-08-23T08:00:52;99459.88;;;31.96;32.18
9343;BME280;4710;51.382;7.244;2022-08-23T08:03:42;99447.41;;;32.56;31.96
9343;BME280;4710;51.382;7.244;2022-08-23T08:06:25;99451.64;;;32.46;32.04
9343;BME280;4710;51.382;7.244;2022-08-23T08:09:04;99452.12;;;32.74;31.75
9343;BME280;4710;51.382;7.244;2022-08-23T08:11:45;99445.02;;;33.59;30.93
9343;BME280;4710;51.382;7.244;2022-08-23T08:14:25;99457.45;;;32.34;31.70
9343;BME280;4710;51.382;7.244;2022-08-23T08:17:03;99451.31;;;33.07;31.12
9343;BME280;4710;51.382;7.244;2022-08-23T08:19:40;99453.83;;;33.18;31.00
9343;BME280;4710;51.382;7.244;2022-08-23T08:22:21;99451.13;;;33.26;31.50
9343;BME280;4710;51.382;7.244;2022-08-23T08:24:59;99471.62;;;32.02;32.30
9343;BME280;4710;51.382;7.244;2022-08-23T08:27:40;99463.73;;;32.27;32.04
9343;BME280;4710;51.382;7.244;2022-08-23T08:30:20;99459.58;;;33.12;31.00
9343;BME280;4710;51.382;7.244;2022-08-23T08:32:57;99459.52;;;32.53;31.25
9343;BME280;4710;51.382;7.244;2022-08-23T08:35:37;99464.22;;;33.01;30.63
9343;BME280;4710;51.382;7.244;2022-08-23T08:38:15;99453.38;;;33.11;30.85
9343;BME280;4710;51.382;7.244;2022-08-23T08:41:02;99457.77;;;33.88;29.75
9343;BME280;4710;51.382;7.244;2022-08-23T08:43:57;99461.09;;;32.80;30.65
9343;BME280;4710;51.382;7.244;2022-08-23T08:46:40;99452.45;;;33.51;30.79
9343;BME280;4710;51.382;7.244;2022-08-23T08:49:31;99453.63;;;34.00;30.13
9343;BME280;4710;51.382;7.244;2022-08-23T08:52:25;99452.00;;;34.17;29.83
9343;BME280;4710;51.382;7.244;2022-08-23T08:55:06;99454.62;;;35.07;29.39
9343;BME280;4710;51.382;7.244;2022-08-23T08:57:46;99460.38;;;33.33;30.22
9343;BME280;4710;51.382;7.244;2022-08-23T09:00:28;99457.38;;;34.30;29.52
9343;BME280;4710;51.382;7.244;2022-08-23T09:03:12;99459.01;;;34.78;29.05
9343;BME280;4710;51.382;7.244;2022-08-23T09:05:56;99456.24;;;34.76;28.91
9343;BME280;4710;51.382;7.244;2022-08-23T09:11:49;99463.44;;;34.57;29.22
9343;BME280;4710;51.382;7.244;2022-08-23T09:14:44;99460.80;;;34.74;29.01
9343;BME280;4710;51.382;7.244;2022-08-23T09:17:29;99457.01;;;35.60;28.74
9343;BME280;4710;51.382;7.244;2022-08-23T09:20:08;99455.25;;;35.76;28.87
9343;BME280;4710;51.382;7.244;2022-08-23T09:22:51;99460.93;;;34.80;28.70
9343;BME280;4710;51.382;7.244;2022-08-23T09:25:31;99457.81;;;35.87;28.43
9343;BME280;4710;51.382;7.244;2022-08-23T09:28:13;99459.30;;;34.47;29.04
9343;BME280;4710;51.382;7.244;2022-08-23T09:30:53;99456.77;;;34.85;28.70
9343;BME280;4710;51.382;7.244;2022-08-23T09:33:39;99462.89;;;34.55;29.25
9343;BME280;4710;51.382;7.244;2022-08-23T09:36:21;99459.09;;;35.34;28.86
9343;BME280;4710;51.382;7.244;2022-08-23T09:39:05;99461.96;;;35.87;28.16
9343;BME280;4710;51.382;7.244;2022-08-23T09:41:44;99451.52;;;36.32;28.48
9343;BME280;4710;51.382;7.244;2022-08-23T09:44:33;99452.78;;;36.13;27.63
9343;BME280;4710;51.382;7.244;2022-08-23T09:47:13;99450.47;;;35.87;27.44
9343;BME280;4710;51.382;7.244;2022-08-23T09:49:52;99458.88;;;34.59;29.34
9343;BME280;4710;51.382;7.244;2022-08-23T09:52:34;99450.64;;;35.57;28.32
9343;BME280;4710;51.382;7.244;2022-08-23T09:55:27;99454.67;;;36.65;27.43
9343;BME280;4710;51.382;7.244;2022-08-23T09:58:16;99460.35;;;35.30;27.81
9343;BME280;4710;51.382;7.244;2022-08-23T10:01:07;99457.27;;;35.63;27.85
9343;BME280;4710;51.382;7.244;2022-08-23T10:03:45;99446.98;;;35.18;28.11
9343;BME280;4710;51.382;7.244;2022-08-23T10:06:29;99452.97;;;36.53;27.36
9343;BME280;4710;51.382;7.244;2022-08-23T10:09:35;99458.47;;;34.49;28.72
9343;BME280;4710;51.382;7.244;2022-08-23T10:12:12;99451.83;;;35.12;28.44
9343;BME280;4710;51.382;7.244;2022-08-23T10:14:51;99453.59;;;35.22;28.05
9343;BME280;4710;51.382;7.244;2022-08-23T10:17:47;99454.64;;;36.51;27.05
9343;BME280;4710;51.382;7.244;2022-08-23T10:20:40;99453.41;;;36.50;27.22
9343;BME280;4710;51.382;7.244;2022-08-23T10:23:30;99447.45;;;36.50;26.85
9343;BME280;4710;51.382;7.244;2022-08-23T10:26:29;99443.30;;;35.59;27.79
9343;BME280;4710;51.382;7.244;2022-08-23T10:29:21;99452.09;;;36.14;27.28
9343;BME280;4710;51.382;7.244;2022-08-23T10:32:11;99448.72;;;36.77;27.11
9343;BME280;4710;51.382;7.244;2022-08-23T10:34:59;99450.59;;;35.08;28.09
9343;BME280;4710;51.382;7.244;2022-08-23T10:37:42;99442.99;;;37.06;27.16
9343;BME280;4710;51.382;7.244;2022-08-23T10:40:30;99442.14;;;36.42;27.62
9343;BME280;4710;51.382;7.244;2022-08-23T10:46:00;99443.14;;;37.17;27.09
9343;BME280;4710;51.382;7.244;2022-08-23T10:48:49;99431.09;;;37.75;26.60
9343;BME280;4710;51.382;7.244;2022-08-23T10:51:32;99442.27;;;36.29;26.80
9343;BME280;4710;51.382;7.244;2022-08-23T10:54:15;99435.92;;;36.10;27.49
9343;BME280;4710;51.382;7.244;2022-08-23T10:56:53;99429.83;;;36.13;26.61
9343;BME280;4710;51.382;7.244;2022-08-23T10:59:30;99429.00;;;37.58;26.11
9343;BME280;4710;51.382;7.244;2022-08-23T11:02:31;99428.25;;;37.98;25.85
9343;BME280;4710;51.382;7.244;2022-08-23T11:05:22;99429.94;;;37.39;26.00
9343;BME280;4710;51.382;7.244;2022-08-23T11:08:06;99435.05;;;35.95;27.30
9343;BME280;4710;51.382;7.244;2022-08-23T11:10:46;99433.30;;;36.11;27.06
9343;BME280;4710;51.382;7.244;2022-08-23T11:13:26;99426.20;;;35.95;26.79
9343;BME280;4710;51.382;7.244;2022-08-23T11:16:21;99428.06;;;35.71;27.50
9343;BME280;4710;51.382;7.244;2022-08-23T11:18:48;99418.62;;;37.47;26.27
9343;BME280;4710;51.382;7.244;2022-08-23T11:21:41;99429.67;;;36.84;25.95
9343;BME280;4710;51.382;7.244;2022-08-23T11:24:27;99419.59;;;37.65;25.88
9343;BME280;4710;51.382;7.244;2022-08-23T11:27:09;99417.83;;;37.72;25.56
9343;BME280;4710;51.382;7.244;2022-08-23T11:29:49;99424.65;;;36.98;25.08
9343;BME280;4710;51.382;7.244;2022-08-23T11:32:36;99422.47;;;37.95;24.78
9343;BME280;4710;51.382;7.244;2022-08-23T11:35:28;99426.30;;;38.24;24.76
9343;BME280;4710;51.382;7.244;2022-08-23T11:38:03;99426.98;;;36.89;25.54
9343;BME280;4710;51.382;7.244;2022-08-23T11:40:56;99415.64;;;38.22;24.83
9343;BME280;4710;51.382;7.244;2022-08-23T11:43:36;99417.75;;;37.19;25.25
9343;BME280;4710;51.382;7.244;2022-08-23T11:46:32;99422.33;;;36.70;25.75
9343;BME280;4710;51.382;7.244;2022-08-23T11:49:24;99418.53;;;38.40;24.78
9343;BME280;4710;51.382;7.244;2022-08-23T11:55:44;99431.07;;;36.94;25.71
9343;BME280;4710;51.382;7.244;2022-08-23T11:58:29;99412.20;;;37.77;25.00
9343;BME280;4710;51.382;7.244;2022-08-23T12:01:08;99409.88;;;38.32;24.13
9343;BME280;4710;51.382;7.244;2022-08-23T12:04:05;99414.12;;;38.29;24.34
9343;BME280;4710;51.382;7.244;2022-08-23T12:06:48;99411.75;;;38.95;25.06
9343;BME280;4710;51.382;7.244;2022-08-23T12:09:50;99412.59;;;39.02;24.98
9343;BME280;4710;51.382;7.244;2022-08-23T12:12:34;99401.44;;;38.62;24.76
9343;BME280;4710;51.382;7.244;2022-08-23T12:15:15;99408.40;;;37.89;25.29
9343;BME280;4710;51.382;7.244;2022-08-23T12:18:10;99416.67;;;36.42;26.05
9343;BME280;4710;51.382;7.244;2022-08-23T12:20:37;99408.86;;;38.28;25.05
9343;BME280;4710;51.382;7.244;2022-08-23T12:23:17;99398.74;;;38.80;24.83
9343;BME280;4710;51.382;7.244;2022-08-23T12:26:06;99393.53;;;38.82;24.95
9343;BME280;4710;51.382;7.244;2022-08-23T12:28:53;99395.88;;;38.23;24.87
9343;BME280;4710;51.382;7.244;2022-08-23T12:37:41;99407.36;;;37.09;25.75
9343;BME280;4710;51.382;7.244;2022-08-23T12:40:33;99406.86;;;37.55;25.18
9343;BME280;4710;51.382;7.244;2022-08-23T12:43:17;99399.61;;;38.91;24.41
9343;BME280;4710;51.382;7.244;2022-08-23T12:46:01;99405.56;;;39.05;24.17
9343;BME280;4710;51.382;7.244;2022-08-23T12:48:45;99409.07;;;37.81;24.39
9343;BME280;4710;51.382;7.244;2022-08-23T12:51:26;99410.47;;;37.00;25.00
9343;BME280;4710;51.382;7.244;2022-08-23T12:54:15;99414.95;;;36.86;24.95
9343;BME280;4710;51.382;7.244;2022-08-23T12:56:54;99407.19;;;37.70;24.51
9343;BME280;4710;51.382;7.244;2022-08-23T12:59:42;99405.39;;;38.72;23.78
9343;BME280;4710;51.382;7.244;2022-08-23T13:02:24;99409.41;;;38.05;23.76
9343;BME280;4710;51.382;7.244;2022-08-23T13:05:11;99405.46;;;37.64;23.65
9343;BME280;4710;51.382;7.244;2022-08-23T13:07:50;99403.69;;;38.53;23.08
9343;BME280;4710;51.382;7.244;2022-08-23T13:10:28;99394.33;;;38.85;22.96
9343;BME280;4710;51.382;7.244;2022-08-23T13:13:10;99397.40;;;38.16;22.79
9343;BME280;4710;51.382;7.244;2022-08-23T13:15:52;99398.56;;;37.53;23.01
9343;BME280;4710;51.382;7.244;2022-08-23T13:18:44;99398.66;;;38.49;22.65
9343;BME280;4710;51.382;7.244;2022-08-23T13:21:27;99399.91;;;37.92;23.05
9343;BME280;4710;51.382;7.244;2022-08-23T13:27:15;99391.00;;;39.66;23.22
9343;BME280;4710;51.382;7.244;2022-08-23T13:33:15;99393.62;;;38.25;23.46
9343;BME280;4710;51.382;7.244;2022-08-23T13:38:30;99401.58;;;37.45;23.58
9343;BME280;4710;51.382;7.244;2022-08-23T13:41:09;99398.90;;;38.99;22.64
9343;BME280;4710;51.382;7.244;2022-08-23T13:43:49;99391.92;;;37.70;23.53
9343;BME280;4710;51.382;7.244;2022-08-23T13:46:27;99401.36;;;39.14;22.78
9343;BME280;4710;51.382;7.244;2022-08-23T13:49:09;99396.42;;;38.48;22.87
9343;BME280;4710;51.382;7.244;2022-08-23T13:52:06;99387.28;;;39.71;23.04
9343;BME280;4710;51.382;7.244;2022-08-23T13:54:47;99392.55;;;39.30;22.91
9343;BME280;4710;51.382;7.244;2022-08-23T13:57:31;99393.30;;;38.13;23.74
9343;BME280;4710;51.382;7.244;2022-08-23T14:00:12;99392.78;;;37.86;24.23
9343;BME280;4710;51.382;7.244;2022-08-23T14:02:50;99393.94;;;38.47;24.04
9343;BME280;4710;51.382;7.244;2022-08-23T14:05:27;99394.49;;;38.17;23.69
9343;BME280;4710;51.382;7.244;2022-08-23T14:08:04;99400.03;;;37.82;24.12
9343;BME280;4710;51.382;7.244;2022-08-23T14:10:46;99399.87;;;38.99;23.33
9343;BME280;4710;51.382;7.244;2022-08-23T14:13:26;99398.48;;;39.55;22.81
9343;BME280;4710;51.382;7.244;2022-08-23T14:16:23;99387.80;;;39.30;23.00
9343;BME280;4710;51.382;7.244;2022-08-23T14:19:01;99391.52;;;40.08;22.59
9343;BME280;4710;51.382;7.244;2022-08-23T14:21:42;99401.19;;;39.28;23.11
9343;BME280;4710;51.382;7.244;2022-08-23T14:24:23;99393.45;;;38.87;23.61
9343;BME280;4710;51.382;7.244;2022-08-23T14:27:07;99398.16;;;39.07;23.31
9343;BME280;4710;51.382;7.244;2022-08-23T14:29:48;99402.50;;;38.50;23.84
9343;BME280;4710;51.382;7.244;2022-08-23T14:32:31;99399.55;;;38.28;24.60
9343;BME280;4710;51.382;7.244;2022-08-23T14:35:17;99405.80;;;38.13;24.85
9343;BME280;4710;51.382;7.244;2022-08-23T14:38:01;99402.02;;;38.23;24.74
9343;BME280;4710;51.382;7.244;2022-08-23T14:40:51;99398.16;;;38.51;24.43
9343;BME280;4710;51.382;7.244;2022-08-23T14:43:29;99398.32;;;39.06;23.70
9343;BME280;4710;51.382;7.244;2022-08-23T14:47:14;99394.64;;;39.99;23.89
9343;BME280;4710;51.382;7.244;2022-08-23T14:49:51;99397.19;;;38.80;24.21
9343;BME280;4710;51.382;7.244;2022-08-23T14:52:34;99400.94;;;39.07;24.36
9343;BME280;4710;51.382;7.244;2022-08-23T14:55:14;99395.12;;;39.90;23.68
9343;BME280;4710;51.382;7.244;2022-08-23T14:57:52;99398.56;;;39.52;23.93
9343;BME280;4710;51.382;7.244;2022-08-23T15:00:30;99395.38;;;39.21;23.89
9343;BME280;4710;51.382;7.244;2022-08-23T15:03:10;99385.94;;;39.64;23.44
9343;BME280;4710;51.382;7.244;2022-08-23T15:05:52;99392.72;;;38.82;24.11
9343;BME280;4710;51.382;7.244;2022-08-23T15:08:29;99400.56;;;39.11;23.54
9343;BME280;4710;51.382;7.244;2022-08-23T15:11:10;99391.46;;;38.06;24.61
9343;BME280;4710;51.382;7.244;2022-08-23T15:13:57;99394.55;;;38.53;24.85
9343;BME280;4710;51.382;7.244;2022-08-23T15:16:37;99397.15;;;39.34;24.21
9343;BME280;4710;51.382;7.244;2022-08-23T15:19:19;99393.00;;;40.62;23.01
9343;BME280;4710;51.382;7.244;2022-08-23T15:21:58;99393.48;;;39.12;23.71
9343;BME280;4710;51.382;7.244;2022-08-23T15:24:35;99405.30;;;37.84;25.02
9343;BME280;4710;51.382;7.244;2022-08-23T15:27:16;99392.13;;;39.47;24.16
9343;BME280;4710;51.382;7.244;2022-08-23T15:29:58;99392.31;;;39.64;24.05
9343;BME280;4710;51.382;7.244;2022-08-23T15:32:41;99391.87;;;39.71;23.87